Terminal Aerodrome Forecast
Issued by NWS

Home | Current Version | Previous Version | Text Only | Print | Product List | Glossary On
Versions: 1 2 3 4 5 6 7 8 9 10 11 12 13 14 15 16 17 18 19 20 21 22 23 24 25 26 27 28 29 30
000
FTPA31 PHFO 031700
TAFJRF
TAF
PHJR 031738Z 0318/0418 VRB05KT P6SM VCSH SCT020 BKN040 BKN080
      TEMPO 0318/0319 -RA BKN020
     FM032000 14011KT P6SM VCSH SCT025 BKN040
      TEMPO 0323/0403 5SM SHRA BR BKN025
     FM040500 VRB04KT P6SM VCSH SCT020 BKN040=

USA.gov is the U.S. government's official web portal to all federal, state and local government web resources and services.